Morning Charlotte — 3EMA2 — position and weather

sailwx.info

Track history (hours):
 
Tides and Currents Weather Stations Pressure Air Temp Water Temp Dewpoint Dewpoint Depression Visibility Wind Speed Wind Dir Waves Ship Positions

Morning Charlotte

Last reported at 2015-Jun-21 07:24 UTC. Time now 2015-Jul-06 15:36 UTC.
Position N 02°04' E 102°07'.
Warning: this ship's position is 15 days out of date.

Length 200 m; draft 9.1 m.

Type: Cargo ship. MMSI: 357275000.

Date/timePositionNaut miles runAvg speedWind from/ knotsBaromVisibWave heightAir tempDewpointWater temp
2015-Jun-21 07:24N 02°04' E 102°07'1516.9
2015-Jun-21 06:30N 01°55' E 102°19'1516.2
2015-Jun-21 05:33N 01°49' E 102°33'1615.8
2015-Jun-21 04:32N 01°42' E 102°48'6416.1
2015-Jun-21 00:32N 01°09' E 103°43'9 9.4
2015-Jun-20 23:33N 01°12' E 103°52'6 5.5
2015-Jun-20 22:25N 01°16' E 103°56'0 0.0
2015-Jun-20 21:19N 01°16' E 103°56'0 0.0
2015-Jun-20 20:28N 01°16' E 103°56'0 0.0
2015-Jun-20 19:28N 01°17' E 103°56'0 0.0
2015-Jun-20 18:31N 01°16' E 103°56'0 0.1
2015-Jun-20 17:19N 01°17' E 103°56'0 0.0
2015-Jun-20 16:25N 01°16' E 103°56'0 0.0
2015-Jun-20 15:31N 01°16' E 103°56'0 0.0
2015-Jun-20 14:19N 01°16' E 103°56'0 0.0
2015-Jun-20 13:34N 01°16' E 103°56'0 0.0
2015-Jun-20 12:33N 01°16' E 103°56'0 0.0
2015-Jun-20 11:34N 01°17' E 103°56'0 0.0
2015-Jun-20 10:33N 01°17' E 103°56'0 0.1
2015-Jun-20 09:33N 01°17' E 103°56'0 0.1
2015-Jun-20 08:34N 01°17' E 103°56'3 3.0
2015-Jun-20 07:33N 01°16' E 103°59'6 5.7
2015-Jun-20 06:33N 01°17' E 104°05'8 8.1
2015-Jun-20 05:33N 01°17' E 104°13'  
2015-Jun-14 11:28N 31°38' E 124°47'1617.2
2015-Jun-14 10:31N 31°54' E 124°44'1717.8
2015-Jun-14 09:33N 32°11' E 124°40'6018.6
2015-Jun-14 06:19N 33°10' E 124°23'226 5.0
2015-Jun-12 09:33N 36°48' E 125°32'8 8.0
2015-Jun-12 08:33N 36°41' E 125°27'1615.6
2015-Jun-12 07:32N 36°28' E 125°17'1717.1
2015-Jun-12 06:33N 36°13' E 125°07'1818.3
2015-Jun-12 05:33N 35°55' E 125°00'1918.6
2015-Jun-12 04:33N 35°36' E 125°01'  
Track history (hours):
 
Tides and Currents Weather Stations Pressure Air Temp Water Temp Dewpoint Dewpoint Depression Visibility Wind Speed Wind Dir Waves Ship Positions

Morning Charlotte

Last reported at 2015-Jun-21 07:24 UTC. Time now 2015-Jul-06 15:36 UTC.
Position N 02°04' E 102°07'.
Warning: this ship's position is 15 days out of date.

Length 200 m; draft 9.1 m.

Type: Cargo ship. MMSI: 357275000.

Date/timePositionNaut miles runAvg speedWind from/ knotsBaromVisibWave heightAir tempDewpointWater temp
2015-Jun-21 07:24N 02°04' E 102°07'1516.9
2015-Jun-21 06:30N 01°55' E 102°19'1516.2
2015-Jun-21 05:33N 01°49' E 102°33'1615.8
2015-Jun-21 04:32N 01°42' E 102°48'6416.1
2015-Jun-21 00:32N 01°09' E 103°43'9 9.4
2015-Jun-20 23:33N 01°12' E 103°52'6 5.5
2015-Jun-20 22:25N 01°16' E 103°56'0 0.0
2015-Jun-20 21:19N 01°16' E 103°56'0 0.0
2015-Jun-20 20:28N 01°16' E 103°56'0 0.0
2015-Jun-20 19:28N 01°17' E 103°56'0 0.0
2015-Jun-20 18:31N 01°16' E 103°56'0 0.1
2015-Jun-20 17:19N 01°17' E 103°56'0 0.0
2015-Jun-20 16:25N 01°16' E 103°56'0 0.0
2015-Jun-20 15:31N 01°16' E 103°56'0 0.0
2015-Jun-20 14:19N 01°16' E 103°56'0 0.0
2015-Jun-20 13:34N 01°16' E 103°56'0 0.0
2015-Jun-20 12:33N 01°16' E 103°56'0 0.0
2015-Jun-20 11:34N 01°17' E 103°56'0 0.0
2015-Jun-20 10:33N 01°17' E 103°56'0 0.1
2015-Jun-20 09:33N 01°17' E 103°56'0 0.1
2015-Jun-20 08:34N 01°17' E 103°56'3 3.0
2015-Jun-20 07:33N 01°16' E 103°59'6 5.7
2015-Jun-20 06:33N 01°17' E 104°05'8 8.1
2015-Jun-20 05:33N 01°17' E 104°13'  
2015-Jun-14 11:28N 31°38' E 124°47'1617.2
2015-Jun-14 10:31N 31°54' E 124°44'1717.8
2015-Jun-14 09:33N 32°11' E 124°40'6018.6
2015-Jun-14 06:19N 33°10' E 124°23'226 5.0
2015-Jun-12 09:33N 36°48' E 125°32'8 8.0
2015-Jun-12 08:33N 36°41' E 125°27'1615.6
2015-Jun-12 07:32N 36°28' E 125°17'1717.1
2015-Jun-12 06:33N 36°13' E 125°07'1818.3
2015-Jun-12 05:33N 35°55' E 125°00'1918.6
2015-Jun-12 04:33N 35°36' E 125°01'  

Dump ship's entire track history